sensor_id;sensor_type;location;lat;lon;timestamp;P1;durP1;ratioP1;P2;durP2;ratioP2
6679;SDS011;3376;42.664;23.346;2024-03-23T00:55:46;21.07;;;13.23;;
6679;SDS011;3376;42.664;23.346;2024-03-23T00:59:12;28.93;;;14.47;;
6679;SDS011;3376;42.664;23.346;2024-03-23T01:02:37;18.53;;;13.60;;
6679;SDS011;3376;42.664;23.346;2024-03-23T01:06:03;25.90;;;14.07;;
6679;SDS011;3376;42.664;23.346;2024-03-23T01:09:31;20.47;;;14.17;;
6679;SDS011;3376;42.664;23.346;2024-03-23T01:12:56;20.63;;;14.10;;
6679;SDS011;3376;42.664;23.346;2024-03-23T01:16:23;22.43;;;14.50;;
6679;SDS011;3376;42.664;23.346;2024-03-23T01:19:48;34.67;;;14.27;;
6679;SDS011;3376;42.664;23.346;2024-03-23T01:23:14;20.63;;;14.07;;
6679;SDS011;3376;42.664;23.346;2024-03-23T01:26:42;18.33;;;13.07;;
6679;SDS011;3376;42.664;23.346;2024-03-23T01:30:07;20.83;;;13.63;;
6679;SDS011;3376;42.664;23.346;2024-03-23T01:33:35;17.00;;;14.03;;
6679;SDS011;3376;42.664;23.346;2024-03-23T01:37:01;24.40;;;14.03;;
6679;SDS011;3376;42.664;23.346;2024-03-23T01:40:25;22.77;;;14.17;;
6679;SDS011;3376;42.664;23.346;2024-03-23T01:43:56;20.67;;;12.87;;
6679;SDS011;3376;42.664;23.346;2024-03-23T01:47:22;16.87;;;13.67;;
6679;SDS011;3376;42.664;23.346;2024-03-23T01:50:46;21.20;;;14.83;;
6679;SDS011;3376;42.664;23.346;2024-03-23T01:54:13;22.23;;;14.37;;
6679;SDS011;3376;42.664;23.346;2024-03-23T01:57:39;21.03;;;13.07;;
6679;SDS011;3376;42.664;23.346;2024-03-23T02:01:08;23.33;;;16.20;;
6679;SDS011;3376;42.664;23.346;2024-03-23T02:04:34;26.07;;;13.47;;
6679;SDS011;3376;42.664;23.346;2024-03-23T02:07:59;21.53;;;12.57;;
6679;SDS011;3376;42.664;23.346;2024-03-23T02:11:24;18.53;;;14.20;;
6679;SDS011;3376;42.664;23.346;2024-03-23T02:14:52;16.80;;;12.97;;
6679;SDS011;3376;42.664;23.346;2024-03-23T02:18:20;28.57;;;13.27;;
6679;SDS011;3376;42.664;23.346;2024-03-23T02:21:48;29.90;;;13.63;;
6679;SDS011;3376;42.664;23.346;2024-03-23T02:25:18;23.97;;;13.87;;
6679;SDS011;3376;42.664;23.346;2024-03-23T02:28:44;23.43;;;14.57;;
6679;SDS011;3376;42.664;23.346;2024-03-23T02:32:09;20.90;;;13.73;;
6679;SDS011;3376;42.664;23.346;2024-03-23T02:35:35;17.23;;;12.33;;
6679;SDS011;3376;42.664;23.346;2024-03-23T02:39:01;27.67;;;13.50;;
6679;SDS011;3376;42.664;23.346;2024-03-23T02:42:27;16.13;;;13.23;;
6679;SDS011;3376;42.664;23.346;2024-03-23T02:45:54;19.30;;;13.40;;
6679;SDS011;3376;42.664;23.346;2024-03-23T02:49:19;22.57;;;14.07;;
6679;SDS011;3376;42.664;23.346;2024-03-23T02:52:46;17.40;;;12.77;;
6679;SDS011;3376;42.664;23.346;2024-03-23T02:56:14;24.93;;;13.57;;
6679;SDS011;3376;42.664;23.346;2024-03-23T02:59:40;24.57;;;14.77;;
6679;SDS011;3376;42.664;23.346;2024-03-23T03:03:06;20.83;;;14.57;;
6679;SDS011;3376;42.664;23.346;2024-03-23T03:06:34;18.37;;;12.23;;
6679;SDS011;3376;42.664;23.346;2024-03-23T03:10:00;19.50;;;12.97;;
6679;SDS011;3376;42.664;23.346;2024-03-23T03:13:26;20.70;;;13.03;;
6679;SDS011;3376;42.664;23.346;2024-03-23T03:16:53;20.80;;;12.43;;
6679;SDS011;3376;42.664;23.346;2024-03-23T03:20:19;16.53;;;12.57;;
6679;SDS011;3376;42.664;23.346;2024-03-23T03:23:44;17.27;;;12.90;;
6679;SDS011;3376;42.664;23.346;2024-03-23T03:27:10;21.03;;;14.27;;
6679;SDS011;3376;42.664;23.346;2024-03-23T03:30:37;19.20;;;12.13;;
6679;SDS011;3376;42.664;23.346;2024-03-23T03:34:02;17.77;;;12.73;;
6679;SDS011;3376;42.664;23.346;2024-03-23T03:37:28;17.73;;;12.60;;
6679;SDS011;3376;42.664;23.346;2024-03-23T03:40:54;23.23;;;13.67;;
6679;SDS011;3376;42.664;23.346;2024-03-23T03:44:22;16.47;;;13.47;;
6679;SDS011;3376;42.664;23.346;2024-03-23T03:47:48;17.20;;;13.67;;
6679;SDS011;3376;42.664;23.346;2024-03-23T03:51:14;26.20;;;14.37;;
6679;SDS011;3376;42.664;23.346;2024-03-23T03:54:40;22.33;;;14.27;;
6679;SDS011;3376;42.664;23.346;2024-03-23T03:58:06;20.47;;;13.77;;
6679;SDS011;3376;42.664;23.346;2024-03-23T04:01:31;18.17;;;14.23;;
6679;SDS011;3376;42.664;23.346;2024-03-23T04:04:58;17.63;;;14.80;;
6679;SDS011;3376;42.664;23.346;2024-03-23T04:08:23;21.67;;;13.13;;
6679;SDS011;3376;42.664;23.346;2024-03-23T04:11:49;17.60;;;14.57;;
6679;SDS011;3376;42.664;23.346;2024-03-23T04:15:14;17.10;;;14.07;;
6679;SDS011;3376;42.664;23.346;2024-03-23T04:18:50;17.03;;;11.73;;
6679;SDS011;3376;42.664;23.346;2024-03-23T04:22:19;16.60;;;12.97;;
6679;SDS011;3376;42.664;23.346;2024-03-23T04:25:44;19.40;;;12.87;;
6679;SDS011;3376;42.664;23.346;2024-03-23T04:29:09;19.43;;;16.73;;
6679;SDS011;3376;42.664;23.346;2024-03-23T04:32:36;33.53;;;21.77;;
6679;SDS011;3376;42.664;23.346;2024-03-23T04:36:02;23.70;;;15.40;;
6679;SDS011;3376;42.664;23.346;2024-03-23T04:39:29;14.60;;;12.47;;
6679;SDS011;3376;42.664;23.346;2024-03-23T04:42:55;15.73;;;12.27;;
6679;SDS011;3376;42.664;23.346;2024-03-23T04:46:20;16.73;;;12.17;;
6679;SDS011;3376;42.664;23.346;2024-03-23T04:49:46;19.67;;;12.50;;
6679;SDS011;3376;42.664;23.346;2024-03-23T04:53:12;18.87;;;12.37;;
6679;SDS011;3376;42.664;23.346;2024-03-23T04:56:45;20.37;;;13.03;;
6679;SDS011;3376;42.664;23.346;2024-03-23T05:00:11;24.97;;;12.93;;
6679;SDS011;3376;42.664;23.346;2024-03-23T05:03:38;20.07;;;12.87;;
6679;SDS011;3376;42.664;23.346;2024-03-23T05:07:06;15.80;;;13.80;;
6679;SDS011;3376;42.664;23.346;2024-03-23T05:10:33;15.10;;;11.93;;
6679;SDS011;3376;42.664;23.346;2024-03-23T05:13:59;24.27;;;13.87;;
6679;SDS011;3376;42.664;23.346;2024-03-23T05:17:25;20.37;;;12.83;;
6679;SDS011;3376;42.664;23.346;2024-03-23T05:20:55;20.17;;;13.47;;
6679;SDS011;3376;42.664;23.346;2024-03-23T05:24:21;17.17;;;11.77;;
6679;SDS011;3376;42.664;23.346;2024-03-23T05:27:46;18.67;;;12.70;;
6679;SDS011;3376;42.664;23.346;2024-03-23T05:31:16;22.13;;;12.93;;
6679;SDS011;3376;42.664;23.346;2024-03-23T05:34:47;17.43;;;13.27;;
6679;SDS011;3376;42.664;23.346;2024-03-23T05:38:21;26.90;;;13.23;;
6679;SDS011;3376;42.664;23.346;2024-03-23T05:41:49;16.47;;;13.30;;
6679;SDS011;3376;42.664;23.346;2024-03-23T05:45:18;13.47;;;11.60;;
6679;SDS011;3376;42.664;23.346;2024-03-23T05:48:44;20.07;;;11.57;;
6679;SDS011;3376;42.664;23.346;2024-03-23T05:52:10;22.70;;;13.13;;
6679;SDS011;3376;42.664;23.346;2024-03-23T05:55:35;19.07;;;11.40;;
6679;SDS011;3376;42.664;23.346;2024-03-23T05:59:01;16.17;;;10.23;;
6679;SDS011;3376;42.664;23.346;2024-03-23T06:02:27;12.10;;;9.80;;
6679;SDS011;3376;42.664;23.346;2024-03-23T06:05:53;16.20;;;9.87;;
6679;SDS011;3376;42.664;23.346;2024-03-23T06:09:20;11.20;;;10.17;;
6679;SDS011;3376;42.664;23.346;2024-03-23T06:12:45;11.73;;;10.53;;
6679;SDS011;3376;42.664;23.346;2024-03-23T06:16:11;16.57;;;11.60;;
6679;SDS011;3376;42.664;23.346;2024-03-23T06:19:39;13.13;;;11.40;;
6679;SDS011;3376;42.664;23.346;2024-03-23T06:23:05;13.47;;;12.10;;
6679;SDS011;3376;42.664;23.346;2024-03-23T06:26:31;18.93;;;12.77;;
6679;SDS011;3376;42.664;23.346;2024-03-23T06:29:57;13.03;;;11.67;;
6679;SDS011;3376;42.664;23.346;2024-03-23T06:33:23;13.10;;;11.70;;
6679;SDS011;3376;42.664;23.346;2024-03-23T06:36:51;13.67;;;12.20;;
6679;SDS011;3376;42.664;23.346;2024-03-23T06:40:16;19.97;;;11.47;;
6679;SDS011;3376;42.664;23.346;2024-03-23T06:43:43;14.17;;;11.07;;
6679;SDS011;3376;42.664;23.346;2024-03-23T06:47:10;12.93;;;10.20;;
6679;SDS011;3376;42.664;23.346;2024-03-23T06:50:36;11.50;;;10.23;;
6679;SDS011;3376;42.664;23.346;2024-03-23T06:54:04;18.97;;;11.43;;
6679;SDS011;3376;42.664;23.346;2024-03-23T06:57:30;13.10;;;10.07;;
6679;SDS011;3376;42.664;23.346;2024-03-23T07:00:58;11.30;;;10.17;;
6679;SDS011;3376;42.664;23.346;2024-03-23T07:04:24;12.60;;;8.90;;
6679;SDS011;3376;42.664;23.346;2024-03-23T07:07:50;10.43;;;9.53;;
6679;SDS011;3376;42.664;23.346;2024-03-23T07:11:19;11.30;;;9.40;;
6679;SDS011;3376;42.664;23.346;2024-03-23T07:14:46;10.17;;;9.37;;
6679;SDS011;3376;42.664;23.346;2024-03-23T07:18:22;10.03;;;8.60;;
6679;SDS011;3376;42.664;23.346;2024-03-23T07:21:50;12.23;;;8.10;;
6679;SDS011;3376;42.664;23.346;2024-03-23T07:25:15;10.70;;;9.10;;
6679;SDS011;3376;42.664;23.346;2024-03-23T07:28:45;16.10;;;9.13;;
6679;SDS011;3376;42.664;23.346;2024-03-23T07:32:11;10.80;;;8.27;;
6679;SDS011;3376;42.664;23.346;2024-03-23T07:35:37;9.07;;;8.33;;
6679;SDS011;3376;42.664;23.346;2024-03-23T07:39:02;10.83;;;9.60;;
6679;SDS011;3376;42.664;23.346;2024-03-23T07:42:29;10.00;;;9.07;;
6679;SDS011;3376;42.664;23.346;2024-03-23T07:45:55;9.80;;;8.97;;
6679;SDS011;3376;42.664;23.346;2024-03-23T07:49:21;9.63;;;8.77;;
6679;SDS011;3376;42.664;23.346;2024-03-23T07:52:47;9.67;;;8.83;;
6679;SDS011;3376;42.664;23.346;2024-03-23T07:56:14;9.23;;;8.43;;
6679;SDS011;3376;42.664;23.346;2024-03-23T07:59:40;9.90;;;9.10;;
6679;SDS011;3376;42.664;23.346;2024-03-23T08:03:07;10.63;;;9.63;;
6679;SDS011;3376;42.664;23.346;2024-03-23T08:06:33;11.90;;;10.17;;
6679;SDS011;3376;42.664;23.346;2024-03-23T08:09:57;11.50;;;10.47;;
6679;SDS011;3376;42.664;23.346;2024-03-23T08:13:23;12.53;;;10.63;;
6679;SDS011;3376;42.664;23.346;2024-03-23T08:16:49;14.73;;;11.30;;
6679;SDS011;3376;42.664;23.346;2024-03-23T08:20:16;16.10;;;12.00;;
6679;SDS011;3376;42.664;23.346;2024-03-23T08:23:44;19.03;;;11.77;;
6679;SDS011;3376;42.664;23.346;2024-03-23T08:27:09;12.50;;;11.30;;
6679;SDS011;3376;42.664;23.346;2024-03-23T08:30:34;12.90;;;11.63;;
6679;SDS011;3376;42.664;23.346;2024-03-23T08:34:00;13.87;;;12.67;;
6679;SDS011;3376;42.664;23.346;2024-03-23T08:37:26;18.87;;;12.80;;
6679;SDS011;3376;42.664;23.346;2024-03-23T08:40:56;12.93;;;11.60;;
6679;SDS011;3376;42.664;23.346;2024-03-23T08:44:20;11.53;;;10.47;;
6679;SDS011;3376;42.664;23.346;2024-03-23T08:47:46;15.80;;;11.00;;
6679;SDS011;3376;42.664;23.346;2024-03-23T08:51:12;15.93;;;11.47;;
6679;SDS011;3376;42.664;23.346;2024-03-23T08:54:41;11.80;;;10.80;;
6679;SDS011;3376;42.664;23.346;2024-03-23T08:58:07;12.50;;;11.57;;
6679;SDS011;3376;42.664;23.346;2024-03-23T09:01:31;11.80;;;10.60;;
6679;SDS011;3376;42.664;23.346;2024-03-23T09:04:57;12.10;;;10.97;;
6679;SDS011;3376;42.664;23.346;2024-03-23T09:08:23;11.90;;;10.73;;
6679;SDS011;3376;42.664;23.346;2024-03-23T09:11:50;12.13;;;10.90;;
6679;SDS011;3376;42.664;23.346;2024-03-23T09:15:16;11.63;;;10.83;;
6679;SDS011;3376;42.664;23.346;2024-03-23T09:18:41;13.20;;;10.93;;
6679;SDS011;3376;42.664;23.346;2024-03-23T09:22:07;13.87;;;11.33;;
6679;SDS011;3376;42.664;23.346;2024-03-23T09:25:35;13.20;;;11.83;;
6679;SDS011;3376;42.664;23.346;2024-03-23T09:29:03;11.37;;;10.57;;
6679;SDS011;3376;42.664;23.346;2024-03-23T09:32:28;11.93;;;10.67;;
6679;SDS011;3376;42.664;23.346;2024-03-23T09:35:54;17.30;;;11.10;;
6679;SDS011;3376;42.664;23.346;2024-03-23T09:39:20;10.03;;;9.37;;
6679;SDS011;3376;42.664;23.346;2024-03-23T09:42:49;10.83;;;10.03;;
6679;SDS011;3376;42.664;23.346;2024-03-23T09:46:16;14.37;;;10.03;;
6679;SDS011;3376;42.664;23.346;2024-03-23T09:49:41;13.30;;;9.97;;
6679;SDS011;3376;42.664;23.346;2024-03-23T09:53:08;10.43;;;9.67;;
6679;SDS011;3376;42.664;23.346;2024-03-23T09:56:33;10.50;;;9.47;;
6679;SDS011;3376;42.664;23.346;2024-03-23T09:59:59;9.70;;;9.00;;
6679;SDS011;3376;42.664;23.346;2024-03-23T10:03:26;9.57;;;8.53;;
6679;SDS011;3376;42.664;23.346;2024-03-23T10:07:11;17.17;;;13.03;;
6679;SDS011;3376;42.664;23.346;2024-03-23T10:10:44;11.07;;;10.10;;
6679;SDS011;3376;42.664;23.346;2024-03-23T10:14:20;10.67;;;9.57;;
6679;SDS011;3376;42.664;23.346;2024-03-23T10:17:55;10.50;;;9.50;;
6679;SDS011;3376;42.664;23.346;2024-03-23T10:21:21;10.03;;;9.20;;
6679;SDS011;3376;42.664;23.346;2024-03-23T10:24:48;9.53;;;8.77;;
6679;SDS011;3376;42.664;23.346;2024-03-23T10:28:15;10.07;;;9.03;;
6679;SDS011;3376;42.664;23.346;2024-03-23T10:31:45;9.93;;;9.13;;
6679;SDS011;3376;42.664;23.346;2024-03-23T10:35:16;10.40;;;9.57;;
6679;SDS011;3376;42.664;23.346;2024-03-23T10:38:41;9.57;;;8.57;;
6679;SDS011;3376;42.664;23.346;2024-03-23T10:42:08;11.53;;;9.37;;
6679;SDS011;3376;42.664;23.346;2024-03-23T10:45:35;9.17;;;8.43;;
6679;SDS011;3376;42.664;23.346;2024-03-23T10:49:00;8.37;;;6.97;;
6679;SDS011;3376;42.664;23.346;2024-03-23T10:52:27;8.27;;;7.60;;
6679;SDS011;3376;42.664;23.346;2024-03-23T10:55:56;8.00;;;7.43;;
6679;SDS011;3376;42.664;23.346;2024-03-23T10:59:23;7.70;;;7.13;;
6679;SDS011;3376;42.664;23.346;2024-03-23T11:02:49;7.57;;;6.50;;
6679;SDS011;3376;42.664;23.346;2024-03-23T11:10:00;7.07;;;6.67;;
6679;SDS011;3376;42.664;23.346;2024-03-23T11:13:37;7.30;;;6.80;;
6679;SDS011;3376;42.664;23.346;2024-03-23T11:17:08;7.77;;;7.07;;
6679;SDS011;3376;42.664;23.346;2024-03-23T11:20:36;8.03;;;7.23;;
6679;SDS011;3376;42.664;23.346;2024-03-23T11:24:22;7.33;;;6.83;;
6679;SDS011;3376;42.664;23.346;2024-03-23T11:27:49;14.63;;;13.73;;
6679;SDS011;3376;42.664;23.346;2024-03-23T11:31:15;8.70;;;7.80;;
6679;SDS011;3376;42.664;23.346;2024-03-23T11:34:38;7.97;;;7.37;;
6679;SDS011;3376;42.664;23.346;2024-03-23T11:37:07;11.80;;;10.50;;
6679;SDS011;3376;42.664;23.346;2024-03-23T11:40:35;10.47;;;9.50;;
6679;SDS011;3376;42.664;23.346;2024-03-23T11:44:14;8.17;;;7.47;;
6679;SDS011;3376;42.664;23.346;2024-03-23T11:47:41;7.57;;;7.00;;
6679;SDS011;3376;42.664;23.346;2024-03-23T11:51:02;10.70;;;7.33;;
6679;SDS011;3376;42.664;23.346;2024-03-23T11:54:29;7.17;;;6.70;;
6679;SDS011;3376;42.664;23.346;2024-03-23T11:57:56;9.10;;;7.27;;
6679;SDS011;3376;42.664;23.346;2024-03-23T12:01:22;8.67;;;7.90;;
6679;SDS011;3376;42.664;23.346;2024-03-23T12:04:47;6.87;;;6.27;;
6679;SDS011;3376;42.664;23.346;2024-03-23T12:08:15;7.70;;;7.00;;
6679;SDS011;3376;42.664;23.346;2024-03-23T12:11:42;7.40;;;6.80;;
6679;SDS011;3376;42.664;23.346;2024-03-23T12:15:10;8.20;;;7.37;;
6679;SDS011;3376;42.664;23.346;2024-03-23T12:17:42;10.17;;;7.20;;
6679;SDS011;3376;42.664;23.346;2024-03-23T12:21:09;6.60;;;6.20;;
6679;SDS011;3376;42.664;23.346;2024-03-23T12:24:35;6.80;;;6.20;;
6679;SDS011;3376;42.664;23.346;2024-03-23T12:28:03;7.93;;;5.70;;
6679;SDS011;3376;42.664;23.346;2024-03-23T12:31:33;5.83;;;5.43;;
6679;SDS011;3376;42.664;23.346;2024-03-23T12:34:59;5.70;;;5.30;;
6679;SDS011;3376;42.664;23.346;2024-03-23T12:38:25;6.83;;;6.43;;
6679;SDS011;3376;42.664;23.346;2024-03-23T12:41:53;7.63;;;7.23;;
6679;SDS011;3376;42.664;23.346;2024-03-23T12:45:19;5.33;;;4.93;;
6679;SDS011;3376;42.664;23.346;2024-03-23T12:48:47;5.40;;;4.67;;
6679;SDS011;3376;42.664;23.346;2024-03-23T12:52:14;5.83;;;5.13;;
6679;SDS011;3376;42.664;23.346;2024-03-23T12:55:40;5.50;;;5.13;;
6679;SDS011;3376;42.664;23.346;2024-03-23T12:59:05;4.53;;;4.23;;
6679;SDS011;3376;42.664;23.346;2024-03-23T13:02:34;5.10;;;4.60;;
6679;SDS011;3376;42.664;23.346;2024-03-23T13:06:09;2.63;;;2.47;;
6679;SDS011;3376;42.664;23.346;2024-03-23T13:09:35;2.40;;;2.30;;
6679;SDS011;3376;42.664;23.346;2024-03-23T13:13:01;3.33;;;1.90;;
6679;SDS011;3376;42.664;23.346;2024-03-23T13:16:09;1.80;;;1.70;;
6679;SDS011;3376;42.664;23.346;2024-03-23T13:19:34;2.17;;;1.80;;
6679;SDS011;3376;42.664;23.346;2024-03-23T13:23:04;2.70;;;2.37;;
6679;SDS011;3376;42.664;23.346;2024-03-23T13:26:29;1.60;;;1.50;;
6679;SDS011;3376;42.664;23.346;2024-03-23T13:29:55;1.90;;;1.10;;
6679;SDS011;3376;42.664;23.346;2024-03-23T13:33:22;1.77;;;0.90;;
6679;SDS011;3376;42.664;23.346;2024-03-23T13:36:48;1.13;;;1.13;;
6679;SDS011;3376;42.664;23.346;2024-03-23T13:40:15;1.70;;;1.50;;
6679;SDS011;3376;42.664;23.346;2024-03-23T13:43:42;1.47;;;1.37;;
6679;SDS011;3376;42.664;23.346;2024-03-23T13:47:08;3.10;;;2.90;;
6679;SDS011;3376;42.664;23.346;2024-03-23T13:50:34;2.07;;;1.97;;
6679;SDS011;3376;42.664;23.346;2024-03-23T13:53:59;2.37;;;1.30;;
6679;SDS011;3376;42.664;23.346;2024-03-23T13:57:25;2.87;;;1.20;;
6679;SDS011;3376;42.664;23.346;2024-03-23T14:00:52;1.40;;;1.30;;
6679;SDS011;3376;42.664;23.346;2024-03-23T14:04:18;1.67;;;1.50;;
6679;SDS011;3376;42.664;23.346;2024-03-23T14:07:44;1.10;;;1.10;;
6679;SDS011;3376;42.664;23.346;2024-03-23T14:11:09;1.97;;;1.67;;
6679;SDS011;3376;42.664;23.346;2024-03-23T14:14:40;1.50;;;1.07;;
6679;SDS011;3376;42.664;23.346;2024-03-23T14:18:06;1.30;;;1.20;;
6679;SDS011;3376;42.664;23.346;2024-03-23T14:21:32;2.20;;;1.43;;
6679;SDS011;3376;42.664;23.346;2024-03-23T14:24:58;2.83;;;1.37;;
6679;SDS011;3376;42.664;23.346;2024-03-23T14:28:24;1.77;;;0.80;;
6679;SDS011;3376;42.664;23.346;2024-03-23T14:31:52;1.20;;;1.20;;
6679;SDS011;3376;42.664;23.346;2024-03-23T14:35:18;0.90;;;0.90;;
6679;SDS011;3376;42.664;23.346;2024-03-23T14:38:46;0.73;;;0.73;;
6679;SDS011;3376;42.664;23.346;2024-03-23T14:42:11;1.30;;;1.20;;
6679;SDS011;3376;42.664;23.346;2024-03-23T14:45:37;0.90;;;0.90;;
6679;SDS011;3376;42.664;23.346;2024-03-23T14:49:02;1.40;;;1.30;;
6679;SDS011;3376;42.664;23.346;2024-03-23T14:52:28;1.60;;;1.30;;
6679;SDS011;3376;42.664;23.346;2024-03-23T14:55:55;1.63;;;1.30;;
6679;SDS011;3376;42.664;23.346;2024-03-23T14:59:21;1.37;;;1.03;;
6679;SDS011;3376;42.664;23.346;2024-03-23T15:02:48;0.90;;;0.90;;
6679;SDS011;3376;42.664;23.346;2024-03-23T15:06:14;1.30;;;1.20;;
6679;SDS011;3376;42.664;23.346;2024-03-23T15:09:40;1.20;;;1.20;;
6679;SDS011;3376;42.664;23.346;2024-03-23T15:13:06;1.47;;;1.37;;
6679;SDS011;3376;42.664;23.346;2024-03-23T15:16:33;2.13;;;1.90;;
6679;SDS011;3376;42.664;23.346;2024-03-23T15:20:00;1.40;;;1.30;;
6679;SDS011;3376;42.664;23.346;2024-03-23T15:23:31;1.13;;;1.13;;
6679;SDS011;3376;42.664;23.346;2024-03-23T15:26:57;1.47;;;1.43;;
6679;SDS011;3376;42.664;23.346;2024-03-23T15:30:25;1.00;;;1.00;;
6679;SDS011;3376;42.664;23.346;2024-03-23T15:33:52;1.27;;;1.20;;
6679;SDS011;3376;42.664;23.346;2024-03-23T15:37:18;1.40;;;1.40;;
6679;SDS011;3376;42.664;23.346;2024-03-23T15:40:51;3.47;;;1.50;;
6679;SDS011;3376;42.664;23.346;2024-03-23T15:44:20;1.60;;;1.50;;
6679;SDS011;3376;42.664;23.346;2024-03-23T15:47:46;2.47;;;1.50;;
6679;SDS011;3376;42.664;23.346;2024-03-23T15:51:13;1.70;;;1.50;;
6679;SDS011;3376;42.664;23.346;2024-03-23T15:54:38;3.57;;;2.73;;
6679;SDS011;3376;42.664;23.346;2024-03-23T15:58:06;2.13;;;1.47;;
6679;SDS011;3376;42.664;23.346;2024-03-23T16:01:32;1.90;;;1.30;;
6679;SDS011;3376;42.664;23.346;2024-03-23T16:04:58;1.73;;;1.63;;
6679;SDS011;3376;42.664;23.346;2024-03-23T16:08:25;1.67;;;1.67;;
6679;SDS011;3376;42.664;23.346;2024-03-23T16:11:53;1.97;;;1.70;;
6679;SDS011;3376;42.664;23.346;2024-03-23T16:15:19;2.20;;;2.10;;
6679;SDS011;3376;42.664;23.346;2024-03-23T16:18:47;2.70;;;2.60;;
6679;SDS011;3376;42.664;23.346;2024-03-23T16:22:12;4.27;;;3.00;;
6679;SDS011;3376;42.664;23.346;2024-03-23T16:25:45;2.67;;;2.57;;
6679;SDS011;3376;42.664;23.346;2024-03-23T16:29:11;2.93;;;2.73;;
6679;SDS011;3376;42.664;23.346;2024-03-23T16:32:07;3.33;;;3.03;;
6679;SDS011;3376;42.664;23.346;2024-03-23T16:34:35;5.00;;;3.10;;
6679;SDS011;3376;42.664;23.346;2024-03-23T16:37:02;4.90;;;3.17;;
6679;SDS011;3376;42.664;23.346;2024-03-23T16:39:30;3.23;;;2.93;;
6679;SDS011;3376;42.664;23.346;2024-03-23T16:41:56;8.10;;;3.20;;
6679;SDS011;3376;42.664;23.346;2024-03-23T16:44:24;2.37;;;2.10;;
6679;SDS011;3376;42.664;23.346;2024-03-23T16:46:49;2.93;;;2.80;;
6679;SDS011;3376;42.664;23.346;2024-03-23T16:49:18;3.17;;;3.03;;
6679;SDS011;3376;42.664;23.346;2024-03-23T16:51:45;3.87;;;3.63;;
6679;SDS011;3376;42.664;23.346;2024-03-23T16:54:12;2.87;;;2.77;;
6679;SDS011;3376;42.664;23.346;2024-03-23T16:56:39;2.53;;;2.43;;
6679;SDS011;3376;42.664;23.346;2024-03-23T16:59:06;8.63;;;3.23;;
6679;SDS011;3376;42.664;23.346;2024-03-23T17:01:34;3.30;;;3.10;;
6679;SDS011;3376;42.664;23.346;2024-03-23T17:04:00;3.10;;;2.90;;
6679;SDS011;3376;42.664;23.346;2024-03-23T17:06:29;3.43;;;2.80;;
6679;SDS011;3376;42.664;23.346;2024-03-23T17:08:55;5.93;;;3.00;;
6679;SDS011;3376;42.664;23.346;2024-03-23T17:11:24;2.90;;;2.70;;
6679;SDS011;3376;42.664;23.346;2024-03-23T17:13:50;2.93;;;2.83;;
6679;SDS011;3376;42.664;23.346;2024-03-23T17:16:19;3.27;;;3.17;;
6679;SDS011;3376;42.664;23.346;2024-03-23T17:18:45;3.10;;;3.00;;
6679;SDS011;3376;42.664;23.346;2024-03-23T17:21:12;7.23;;;3.33;;
6679;SDS011;3376;42.664;23.346;2024-03-23T17:23:40;3.33;;;3.23;;
6679;SDS011;3376;42.664;23.346;2024-03-23T17:26:10;3.03;;;2.93;;
6679;SDS011;3376;42.664;23.346;2024-03-23T17:28:37;4.17;;;3.87;;
6679;SDS011;3376;42.664;23.346;2024-03-23T17:31:05;6.63;;;3.93;;
6679;SDS011;3376;42.664;23.346;2024-03-23T17:33:40;11.00;;;4.73;;
6679;SDS011;3376;42.664;23.346;2024-03-23T17:36:07;4.57;;;3.70;;
6679;SDS011;3376;42.664;23.346;2024-03-23T17:38:34;7.83;;;4.80;;
6679;SDS011;3376;42.664;23.346;2024-03-23T17:41:03;5.63;;;4.80;;
6679;SDS011;3376;42.664;23.346;2024-03-23T17:43:29;6.20;;;4.33;;
6679;SDS011;3376;42.664;23.346;2024-03-23T17:45:58;5.33;;;5.00;;
6679;SDS011;3376;42.664;23.346;2024-03-23T17:48:25;10.67;;;5.33;;
6679;SDS011;3376;42.664;23.346;2024-03-23T17:51:00;7.30;;;4.30;;
6679;SDS011;3376;42.664;23.346;2024-03-23T17:53:27;3.50;;;3.30;;
6679;SDS011;3376;42.664;23.346;2024-03-23T17:55:54;4.23;;;3.83;;
6679;SDS011;3376;42.664;23.346;2024-03-23T17:58:23;8.50;;;4.63;;
6679;SDS011;3376;42.664;23.346;2024-03-23T18:00:51;5.90;;;5.00;;
6679;SDS011;3376;42.664;23.346;2024-03-23T18:03:17;6.80;;;4.63;;
6679;SDS011;3376;42.664;23.346;2024-03-23T18:05:44;4.60;;;4.30;;
6679;SDS011;3376;42.664;23.346;2024-03-23T18:08:12;6.43;;;4.67;;
6679;SDS011;3376;42.664;23.346;2024-03-23T18:10:41;6.73;;;4.40;;
6679;SDS011;3376;42.664;23.346;2024-03-23T18:13:07;4.00;;;3.43;;
6679;SDS011;3376;42.664;23.346;2024-03-23T18:15:35;4.90;;;4.47;;
6679;SDS011;3376;42.664;23.346;2024-03-23T18:18:02;7.03;;;4.17;;
6679;SDS011;3376;42.664;23.346;2024-03-23T18:20:30;7.80;;;5.33;;
6679;SDS011;3376;42.664;23.346;2024-03-23T18:22:56;3.90;;;3.50;;
6679;SDS011;3376;42.664;23.346;2024-03-23T18:25:25;7.17;;;4.63;;
6679;SDS011;3376;42.664;23.346;2024-03-23T18:27:51;7.80;;;3.60;;
6679;SDS011;3376;42.664;23.346;2024-03-23T18:30:19;5.53;;;3.67;;
6679;SDS011;3376;42.664;23.346;2024-03-23T18:32:47;4.60;;;2.80;;
6679;SDS011;3376;42.664;23.346;2024-03-23T18:35:14;4.03;;;3.73;;
6679;SDS011;3376;42.664;23.346;2024-03-23T18:37:41;3.87;;;3.57;;
6679;SDS011;3376;42.664;23.346;2024-03-23T18:40:10;4.13;;;3.27;;
6679;SDS011;3376;42.664;23.346;2024-03-23T18:42:36;6.93;;;3.17;;
6679;SDS011;3376;42.664;23.346;2024-03-23T18:45:07;3.00;;;2.47;;
6679;SDS011;3376;42.664;23.346;2024-03-23T18:47:36;2.57;;;2.37;;
6679;SDS011;3376;42.664;23.346;2024-03-23T18:50:06;3.03;;;2.83;;
6679;SDS011;3376;42.664;23.346;2024-03-23T18:52:33;4.77;;;3.43;;
6679;SDS011;3376;42.664;23.346;2024-03-23T18:55:00;5.40;;;4.90;;
6679;SDS011;3376;42.664;23.346;2024-03-23T18:57:26;7.80;;;6.97;;
6679;SDS011;3376;42.664;23.346;2024-03-23T18:59:54;12.03;;;8.27;;
6679;SDS011;3376;42.664;23.346;2024-03-23T19:02:20;8.27;;;7.50;;
6679;SDS011;3376;42.664;23.346;2024-03-23T19:04:47;10.43;;;8.87;;
6679;SDS011;3376;42.664;23.346;2024-03-23T19:07:17;6.20;;;5.70;;
6679;SDS011;3376;42.664;23.346;2024-03-23T19:09:44;6.10;;;5.50;;
6679;SDS011;3376;42.664;23.346;2024-03-23T19:12:11;5.37;;;4.87;;
6679;SDS011;3376;42.664;23.346;2024-03-23T19:14:38;6.90;;;6.40;;
6679;SDS011;3376;42.664;23.346;2024-03-23T19:17:05;7.07;;;6.47;;
6679;SDS011;3376;42.664;23.346;2024-03-23T19:19:33;6.60;;;5.97;;
6679;SDS011;3376;42.664;23.346;2024-03-23T19:22:00;7.23;;;6.53;;
6679;SDS011;3376;42.664;23.346;2024-03-23T19:24:29;8.90;;;5.53;;
6679;SDS011;3376;42.664;23.346;2024-03-23T19:26:56;8.27;;;7.57;;
6679;SDS011;3376;42.664;23.346;2024-03-23T19:29:24;8.87;;;7.27;;
6679;SDS011;3376;42.664;23.346;2024-03-23T19:31:50;6.53;;;5.77;;
6679;SDS011;3376;42.664;23.346;2024-03-23T19:34:18;8.43;;;7.63;;
6679;SDS011;3376;42.664;23.346;2024-03-23T19:36:45;10.43;;;9.07;;
6679;SDS011;3376;42.664;23.346;2024-03-23T19:39:14;7.27;;;6.70;;
6679;SDS011;3376;42.664;23.346;2024-03-23T19:41:41;6.13;;;5.60;;
6679;SDS011;3376;42.664;23.346;2024-03-23T19:44:10;6.23;;;5.87;;
6679;SDS011;3376;42.664;23.346;2024-03-23T19:46:37;6.77;;;5.77;;
6679;SDS011;3376;42.664;23.346;2024-03-23T19:49:04;6.80;;;6.20;;
6679;SDS011;3376;42.664;23.346;2024-03-23T19:51:30;6.33;;;5.80;;
6679;SDS011;3376;42.664;23.346;2024-03-23T19:53:57;5.90;;;5.50;;
6679;SDS011;3376;42.664;23.346;2024-03-23T19:56:23;6.60;;;6.00;;
6679;SDS011;3376;42.664;23.346;2024-03-23T19:58:52;6.47;;;5.87;;
6679;SDS011;3376;42.664;23.346;2024-03-23T20:01:19;6.30;;;5.90;;
6679;SDS011;3376;42.664;23.346;2024-03-23T20:03:47;6.83;;;6.27;;
6679;SDS011;3376;42.664;23.346;2024-03-23T20:06:13;6.80;;;6.20;;
6679;SDS011;3376;42.664;23.346;2024-03-23T20:08:40;7.60;;;7.00;;
6679;SDS011;3376;42.664;23.346;2024-03-23T20:11:07;10.87;;;6.73;;
6679;SDS011;3376;42.664;23.346;2024-03-23T20:13:36;6.83;;;6.33;;
6679;SDS011;3376;42.664;23.346;2024-03-23T20:16:05;7.93;;;7.33;;